sensor_id;sensor_type;location;lat;lon;timestamp;temperature;humidity
16578;DHT22;8401;52.528;13.340;2023-06-26T00:00:03;22.10;99.90
16578;DHT22;8401;52.528;13.340;2023-06-26T00:02:30;22.00;99.90
16578;DHT22;8401;52.528;13.340;2023-06-26T00:04:58;22.00;99.90
16578;DHT22;8401;52.528;13.340;2023-06-26T00:07:28;22.00;99.90
16578;DHT22;8401;52.528;13.340;2023-06-26T00:09:54;22.10;99.90
16578;DHT22;8401;52.528;13.340;2023-06-26T00:12:20;22.00;99.90
16578;DHT22;8401;52.528;13.340;2023-06-26T00:14:46;22.20;99.90
16578;DHT22;8401;52.528;13.340;2023-06-26T00:17:11;22.10;99.90
16578;DHT22;8401;52.528;13.340;2023-06-26T00:19:37;22.00;99.90
16578;DHT22;8401;52.528;13.340;2023-06-26T00:22:03;22.00;99.90
16578;DHT22;8401;52.528;13.340;2023-06-26T00:24:28;22.10;99.90
16578;DHT22;8401;52.528;13.340;2023-06-26T00:26:54;22.20;99.90
16578;DHT22;8401;52.528;13.340;2023-06-26T00:29:19;22.00;99.90
16578;DHT22;8401;52.528;13.340;2023-06-26T00:31:45;22.00;99.90
16578;DHT22;8401;52.528;13.340;2023-06-26T00:34:11;21.90;99.90
16578;DHT22;8401;52.528;13.340;2023-06-26T00:36:37;21.90;99.90
16578;DHT22;8401;52.528;13.340;2023-06-26T00:39:02;21.80;99.90
16578;DHT22;8401;52.528;13.340;2023-06-26T00:41:29;21.90;99.90
16578;DHT22;8401;52.528;13.340;2023-06-26T00:43:54;21.90;99.90
16578;DHT22;8401;52.528;13.340;2023-06-26T00:46:20;21.90;99.90
16578;DHT22;8401;52.528;13.340;2023-06-26T00:48:48;21.90;99.90
16578;DHT22;8401;52.528;13.340;2023-06-26T00:51:14;21.90;99.90
16578;DHT22;8401;52.528;13.340;2023-06-26T00:53:41;21.90;99.90
16578;DHT22;8401;52.528;13.340;2023-06-26T00:56:07;21.90;99.90
16578;DHT22;8401;52.528;13.340;2023-06-26T00:58:33;21.90;99.90
16578;DHT22;8401;52.528;13.340;2023-06-26T01:00:59;21.90;99.90
16578;DHT22;8401;52.528;13.340;2023-06-26T01:03:26;21.80;99.90
16578;DHT22;8401;52.528;13.340;2023-06-26T01:05:52;21.90;99.90
16578;DHT22;8401;52.528;13.340;2023-06-26T01:08:19;21.90;99.90
16578;DHT22;8401;52.528;13.340;2023-06-26T01:10:45;22.00;99.90
16578;DHT22;8401;52.528;13.340;2023-06-26T01:13:12;21.90;99.90
16578;DHT22;8401;52.528;13.340;2023-06-26T01:15:40;21.90;99.90
16578;DHT22;8401;52.528;13.340;2023-06-26T01:18:06;21.90;99.90
16578;DHT22;8401;52.528;13.340;2023-06-26T01:20:36;21.90;99.90
16578;DHT22;8401;52.528;13.340;2023-06-26T01:23:22;21.90;99.90
16578;DHT22;8401;52.528;13.340;2023-06-26T01:28:34;21.90;99.90
16578;DHT22;8401;52.528;13.340;2023-06-26T01:31:02;21.90;99.90
16578;DHT22;8401;52.528;13.340;2023-06-26T01:33:28;22.00;99.90
16578;DHT22;8401;52.528;13.340;2023-06-26T01:35:54;22.00;99.90
16578;DHT22;8401;52.528;13.340;2023-06-26T01:38:20;22.00;99.90
16578;DHT22;8401;52.528;13.340;2023-06-26T01:40:48;21.90;99.90
16578;DHT22;8401;52.528;13.340;2023-06-26T01:43:41;22.00;99.90
16578;DHT22;8401;52.528;13.340;2023-06-26T01:46:18;22.10;99.90
16578;DHT22;8401;52.528;13.340;2023-06-26T01:49:02;22.00;99.90
16578;DHT22;8401;52.528;13.340;2023-06-26T01:51:32;21.90;99.90
16578;DHT22;8401;52.528;13.340;2023-06-26T01:54:01;21.90;99.90
16578;DHT22;8401;52.528;13.340;2023-06-26T01:56:28;21.90;99.90
16578;DHT22;8401;52.528;13.340;2023-06-26T01:58:55;21.90;99.90
16578;DHT22;8401;52.528;13.340;2023-06-26T02:01:22;21.90;99.90
16578;DHT22;8401;52.528;13.340;2023-06-26T02:03:48;21.90;99.90
16578;DHT22;8401;52.528;13.340;2023-06-26T02:06:13;21.80;99.90
16578;DHT22;8401;52.528;13.340;2023-06-26T02:08:40;21.80;99.90
16578;DHT22;8401;52.528;13.340;2023-06-26T02:11:05;21.80;99.90
16578;DHT22;8401;52.528;13.340;2023-06-26T02:13:31;21.80;99.90
16578;DHT22;8401;52.528;13.340;2023-06-26T02:15:56;21.70;99.90
16578;DHT22;8401;52.528;13.340;2023-06-26T02:18:22;21.70;99.90
16578;DHT22;8401;52.528;13.340;2023-06-26T02:20:49;21.70;99.90
16578;DHT22;8401;52.528;13.340;2023-06-26T02:23:14;21.80;99.90
16578;DHT22;8401;52.528;13.340;2023-06-26T02:25:40;21.80;99.90
16578;DHT22;8401;52.528;13.340;2023-06-26T02:28:05;21.80;99.90
16578;DHT22;8401;52.528;13.340;2023-06-26T02:30:31;21.80;99.90
16578;DHT22;8401;52.528;13.340;2023-06-26T02:32:57;22.00;99.90
16578;DHT22;8401;52.528;13.340;2023-06-26T02:35:22;21.90;99.90
16578;DHT22;8401;52.528;13.340;2023-06-26T02:37:48;22.00;99.90
16578;DHT22;8401;52.528;13.340;2023-06-26T02:40:13;22.00;99.90
16578;DHT22;8401;52.528;13.340;2023-06-26T02:42:39;22.00;99.90
16578;DHT22;8401;52.528;13.340;2023-06-26T02:45:05;22.00;99.90
16578;DHT22;8401;52.528;13.340;2023-06-26T02:47:31;21.90;99.90
16578;DHT22;8401;52.528;13.340;2023-06-26T02:49:56;21.90;99.90
16578;DHT22;8401;52.528;13.340;2023-06-26T02:52:22;21.80;99.90
16578;DHT22;8401;52.528;13.340;2023-06-26T02:54:48;21.80;99.90
16578;DHT22;8401;52.528;13.340;2023-06-26T02:57:13;21.80;99.90
16578;DHT22;8401;52.528;13.340;2023-06-26T02:59:40;21.70;99.90
16578;DHT22;8401;52.528;13.340;2023-06-26T03:02:06;21.60;99.90
16578;DHT22;8401;52.528;13.340;2023-06-26T03:04:31;21.50;99.90
16578;DHT22;8401;52.528;13.340;2023-06-26T03:06:57;21.40;99.90
16578;DHT22;8401;52.528;13.340;2023-06-26T03:09:22;21.40;99.90
16578;DHT22;8401;52.528;13.340;2023-06-26T03:11:48;21.30;99.90
16578;DHT22;8401;52.528;13.340;2023-06-26T03:14:14;21.40;99.90
16578;DHT22;8401;52.528;13.340;2023-06-26T03:16:40;21.50;99.90
16578;DHT22;8401;52.528;13.340;2023-06-26T03:19:06;21.40;99.90
16578;DHT22;8401;52.528;13.340;2023-06-26T03:21:32;21.30;99.90
16578;DHT22;8401;52.528;13.340;2023-06-26T03:23:58;21.60;99.90
16578;DHT22;8401;52.528;13.340;2023-06-26T03:26:24;21.70;99.90
16578;DHT22;8401;52.528;13.340;2023-06-26T03:28:53;21.60;99.90
16578;DHT22;8401;52.528;13.340;2023-06-26T03:31:19;21.70;99.90
16578;DHT22;8401;52.528;13.340;2023-06-26T03:33:44;21.60;99.90
16578;DHT22;8401;52.528;13.340;2023-06-26T03:36:11;21.50;99.90
16578;DHT22;8401;52.528;13.340;2023-06-26T03:38:36;21.50;99.90
16578;DHT22;8401;52.528;13.340;2023-06-26T03:41:02;21.50;99.90
16578;DHT22;8401;52.528;13.340;2023-06-26T03:43:28;21.70;99.90
16578;DHT22;8401;52.528;13.340;2023-06-26T03:45:54;21.70;99.90
16578;DHT22;8401;52.528;13.340;2023-06-26T03:48:19;21.80;99.90
16578;DHT22;8401;52.528;13.340;2023-06-26T03:50:45;21.70;99.90
16578;DHT22;8401;52.528;13.340;2023-06-26T03:53:11;21.70;99.90
16578;DHT22;8401;52.528;13.340;2023-06-26T03:55:37;21.80;99.90
16578;DHT22;8401;52.528;13.340;2023-06-26T03:58:04;21.80;99.90
16578;DHT22;8401;52.528;13.340;2023-06-26T04:00:29;21.70;99.90
16578;DHT22;8401;52.528;13.340;2023-06-26T04:02:55;21.70;99.90
16578;DHT22;8401;52.528;13.340;2023-06-26T04:05:21;21.70;99.90
16578;DHT22;8401;52.528;13.340;2023-06-26T04:07:50;21.60;99.90
16578;DHT22;8401;52.528;13.340;2023-06-26T04:10:16;21.50;99.90
16578;DHT22;8401;52.528;13.340;2023-06-26T04:12:41;21.70;99.90
16578;DHT22;8401;52.528;13.340;2023-06-26T04:15:07;21.80;99.90
16578;DHT22;8401;52.528;13.340;2023-06-26T04:17:33;21.80;99.90
16578;DHT22;8401;52.528;13.340;2023-06-26T04:19:59;21.70;99.90
16578;DHT22;8401;52.528;13.340;2023-06-26T04:22:24;21.70;99.90
16578;DHT22;8401;52.528;13.340;2023-06-26T04:24:51;21.70;99.90
16578;DHT22;8401;52.528;13.340;2023-06-26T04:27:17;21.70;99.90
16578;DHT22;8401;52.528;13.340;2023-06-26T04:29:43;21.70;99.90
16578;DHT22;8401;52.528;13.340;2023-06-26T04:32:09;21.90;99.90
16578;DHT22;8401;52.528;13.340;2023-06-26T04:34:34;22.10;99.90
16578;DHT22;8401;52.528;13.340;2023-06-26T04:37:02;22.20;99.90
16578;DHT22;8401;52.528;13.340;2023-06-26T04:39:30;22.20;99.90
16578;DHT22;8401;52.528;13.340;2023-06-26T04:41:56;22.30;99.90
16578;DHT22;8401;52.528;13.340;2023-06-26T04:44:21;22.20;99.90
16578;DHT22;8401;52.528;13.340;2023-06-26T04:46:47;22.20;99.90
16578;DHT22;8401;52.528;13.340;2023-06-26T04:49:13;22.20;99.90
16578;DHT22;8401;52.528;13.340;2023-06-26T04:51:38;22.30;99.90
16578;DHT22;8401;52.528;13.340;2023-06-26T04:54:10;22.30;99.90
16578;DHT22;8401;52.528;13.340;2023-06-26T04:56:36;22.20;99.90
16578;DHT22;8401;52.528;13.340;2023-06-26T04:59:03;22.20;99.90
16578;DHT22;8401;52.528;13.340;2023-06-26T05:01:29;22.30;99.90
16578;DHT22;8401;52.528;13.340;2023-06-26T05:03:56;22.30;99.90
16578;DHT22;8401;52.528;13.340;2023-06-26T05:06:22;22.30;99.90
16578;DHT22;8401;52.528;13.340;2023-06-26T05:08:48;22.30;99.90
16578;DHT22;8401;52.528;13.340;2023-06-26T05:11:14;22.40;99.90
16578;DHT22;8401;52.528;13.340;2023-06-26T05:13:40;22.50;99.90
16578;DHT22;8401;52.528;13.340;2023-06-26T05:16:05;22.40;99.90
16578;DHT22;8401;52.528;13.340;2023-06-26T05:18:33;22.40;99.90
16578;DHT22;8401;52.528;13.340;2023-06-26T05:20:59;22.50;99.90
16578;DHT22;8401;52.528;13.340;2023-06-26T05:23:25;22.50;99.90
16578;DHT22;8401;52.528;13.340;2023-06-26T05:25:52;22.50;99.90
16578;DHT22;8401;52.528;13.340;2023-06-26T05:28:18;22.50;99.90
16578;DHT22;8401;52.528;13.340;2023-06-26T05:30:43;22.50;99.90
16578;DHT22;8401;52.528;13.340;2023-06-26T05:33:14;22.70;99.90
16578;DHT22;8401;52.528;13.340;2023-06-26T05:35:41;22.60;99.90
16578;DHT22;8401;52.528;13.340;2023-06-26T05:38:08;22.60;99.90
16578;DHT22;8401;52.528;13.340;2023-06-26T05:40:34;22.50;99.90
16578;DHT22;8401;52.528;13.340;2023-06-26T05:43:00;22.30;99.90
16578;DHT22;8401;52.528;13.340;2023-06-26T05:45:25;22.30;99.90
16578;DHT22;8401;52.528;13.340;2023-06-26T05:47:51;22.30;99.90
16578;DHT22;8401;52.528;13.340;2023-06-26T05:50:18;22.20;99.90
16578;DHT22;8401;52.528;13.340;2023-06-26T05:52:45;22.50;99.90
16578;DHT22;8401;52.528;13.340;2023-06-26T05:55:11;22.80;99.90
16578;DHT22;8401;52.528;13.340;2023-06-26T05:57:38;22.90;99.90
16578;DHT22;8401;52.528;13.340;2023-06-26T06:00:06;23.00;99.90
16578;DHT22;8401;52.528;13.340;2023-06-26T06:02:36;23.00;99.90
16578;DHT22;8401;52.528;13.340;2023-06-26T06:05:02;23.10;99.90
16578;DHT22;8401;52.528;13.340;2023-06-26T06:07:28;23.20;99.90
16578;DHT22;8401;52.528;13.340;2023-06-26T06:09:53;23.10;99.90
16578;DHT22;8401;52.528;13.340;2023-06-26T06:12:19;23.20;99.90
16578;DHT22;8401;52.528;13.340;2023-06-26T06:14:44;23.20;99.90
16578;DHT22;8401;52.528;13.340;2023-06-26T06:17:10;23.40;99.90
16578;DHT22;8401;52.528;13.340;2023-06-26T06:19:36;23.60;99.90
16578;DHT22;8401;52.528;13.340;2023-06-26T06:22:01;23.80;99.90
16578;DHT22;8401;52.528;13.340;2023-06-26T06:24:27;23.90;99.90
16578;DHT22;8401;52.528;13.340;2023-06-26T06:26:53;24.00;99.90
16578;DHT22;8401;52.528;13.340;2023-06-26T06:29:18;24.20;99.90
16578;DHT22;8401;52.528;13.340;2023-06-26T06:31:45;24.30;99.90
16578;DHT22;8401;52.528;13.340;2023-06-26T06:34:10;24.30;99.90
16578;DHT22;8401;52.528;13.340;2023-06-26T06:36:37;24.50;99.90
16578;DHT22;8401;52.528;13.340;2023-06-26T06:39:03;24.60;99.90
16578;DHT22;8401;52.528;13.340;2023-06-26T06:41:29;24.80;99.90
16578;DHT22;8401;52.528;13.340;2023-06-26T06:43:54;25.00;99.90
16578;DHT22;8401;52.528;13.340;2023-06-26T06:46:21;25.20;99.90
16578;DHT22;8401;52.528;13.340;2023-06-26T06:48:47;25.20;99.90
16578;DHT22;8401;52.528;13.340;2023-06-26T06:51:13;25.40;99.90
16578;DHT22;8401;52.528;13.340;2023-06-26T06:53:38;25.60;99.90
16578;DHT22;8401;52.528;13.340;2023-06-26T06:56:04;25.60;99.90
16578;DHT22;8401;52.528;13.340;2023-06-26T06:58:30;25.70;99.90
16578;DHT22;8401;52.528;13.340;2023-06-26T07:00:59;25.90;99.90
16578;DHT22;8401;52.528;13.340;2023-06-26T07:03:25;26.10;99.90
16578;DHT22;8401;52.528;13.340;2023-06-26T07:05:51;26.20;99.90
16578;DHT22;8401;52.528;13.340;2023-06-26T07:08:16;26.40;99.90
16578;DHT22;8401;52.528;13.340;2023-06-26T07:10:42;26.40;99.90
16578;DHT22;8401;52.528;13.340;2023-06-26T07:13:08;26.60;99.90
16578;DHT22;8401;52.528;13.340;2023-06-26T07:15:33;26.60;99.90
16578;DHT22;8401;52.528;13.340;2023-06-26T07:17:59;27.00;99.90
16578;DHT22;8401;52.528;13.340;2023-06-26T07:20:25;26.90;99.90
16578;DHT22;8401;52.528;13.340;2023-06-26T07:22:52;26.90;99.90
16578;DHT22;8401;52.528;13.340;2023-06-26T07:25:18;27.20;99.90
16578;DHT22;8401;52.528;13.340;2023-06-26T07:27:43;27.30;99.90
16578;DHT22;8401;52.528;13.340;2023-06-26T07:30:10;27.40;99.90
16578;DHT22;8401;52.528;13.340;2023-06-26T07:32:37;27.70;99.90
16578;DHT22;8401;52.528;13.340;2023-06-26T07:35:03;27.80;99.90
16578;DHT22;8401;52.528;13.340;2023-06-26T07:37:28;27.70;99.90
16578;DHT22;8401;52.528;13.340;2023-06-26T07:39:54;28.10;99.90
16578;DHT22;8401;52.528;13.340;2023-06-26T07:42:20;28.00;99.90
16578;DHT22;8401;52.528;13.340;2023-06-26T07:44:45;28.40;99.90
16578;DHT22;8401;52.528;13.340;2023-06-26T07:47:11;28.80;99.90
16578;DHT22;8401;52.528;13.340;2023-06-26T07:49:37;29.20;99.90
16578;DHT22;8401;52.528;13.340;2023-06-26T07:52:05;29.40;99.90
16578;DHT22;8401;52.528;13.340;2023-06-26T07:54:30;29.90;99.90
16578;DHT22;8401;52.528;13.340;2023-06-26T07:57:03;29.90;99.90
16578;DHT22;8401;52.528;13.340;2023-06-26T07:59:32;30.30;99.90
16578;DHT22;8401;52.528;13.340;2023-06-26T08:01:58;32.00;99.90
16578;DHT22;8401;52.528;13.340;2023-06-26T08:04:26;33.10;99.90
16578;DHT22;8401;52.528;13.340;2023-06-26T08:06:54;33.40;99.90
16578;DHT22;8401;52.528;13.340;2023-06-26T08:09:21;33.10;99.90
16578;DHT22;8401;52.528;13.340;2023-06-26T08:11:47;33.80;99.90
16578;DHT22;8401;52.528;13.340;2023-06-26T08:14:13;33.80;99.90
16578;DHT22;8401;52.528;13.340;2023-06-26T08:16:40;34.00;99.90
16578;DHT22;8401;52.528;13.340;2023-06-26T08:19:06;34.20;99.90
16578;DHT22;8401;52.528;13.340;2023-06-26T08:21:32;34.40;99.90
16578;DHT22;8401;52.528;13.340;2023-06-26T08:23:57;34.40;99.90
16578;DHT22;8401;52.528;13.340;2023-06-26T08:26:23;34.90;99.90
16578;DHT22;8401;52.528;13.340;2023-06-26T08:28:49;34.60;99.90
16578;DHT22;8401;52.528;13.340;2023-06-26T08:31:15;35.70;99.90
16578;DHT22;8401;52.528;13.340;2023-06-26T08:33:41;36.50;99.90
16578;DHT22;8401;52.528;13.340;2023-06-26T08:36:06;37.10;99.90
16578;DHT22;8401;52.528;13.340;2023-06-26T08:38:32;37.60;99.40
16578;DHT22;8401;52.528;13.340;2023-06-26T08:40:58;37.00;99.40
16578;DHT22;8401;52.528;13.340;2023-06-26T08:43:24;36.80;98.80
16578;DHT22;8401;52.528;13.340;2023-06-26T08:45:52;37.00;98.40
16578;DHT22;8401;52.528;13.340;2023-06-26T08:48:18;35.90;97.50
16578;DHT22;8401;52.528;13.340;2023-06-26T08:50:44;35.30;98.00
16578;DHT22;8401;52.528;13.340;2023-06-26T08:56:07;36.10;97.10
16578;DHT22;8401;52.528;13.340;2023-06-26T08:58:35;36.00;96.30
16578;DHT22;8401;52.528;13.340;2023-06-26T09:01:02;37.20;95.60
16578;DHT22;8401;52.528;13.340;2023-06-26T09:03:28;37.80;95.40
16578;DHT22;8401;52.528;13.340;2023-06-26T09:05:54;37.90;94.50
16578;DHT22;8401;52.528;13.340;2023-06-26T09:08:19;38.00;94.40
16578;DHT22;8401;52.528;13.340;2023-06-26T09:10:45;37.70;93.90
16578;DHT22;8401;52.528;13.340;2023-06-26T09:13:11;38.00;93.40
16578;DHT22;8401;52.528;13.340;2023-06-26T09:15:46;38.30;93.20
16578;DHT22;8401;52.528;13.340;2023-06-26T09:18:13;38.70;92.60
16578;DHT22;8401;52.528;13.340;2023-06-26T09:20:38;38.30;92.50
16578;DHT22;8401;52.528;13.340;2023-06-26T09:23:04;38.00;92.00
16578;DHT22;8401;52.528;13.340;2023-06-26T09:25:30;36.80;91.80
16578;DHT22;8401;52.528;13.340;2023-06-26T09:27:58;36.90;92.60
16578;DHT22;8401;52.528;13.340;2023-06-26T09:30:25;36.90;91.80
16578;DHT22;8401;52.528;13.340;2023-06-26T09:32:50;37.00;92.10
16578;DHT22;8401;52.528;13.340;2023-06-26T09:35:16;37.20;92.40
16578;DHT22;8401;52.528;13.340;2023-06-26T09:37:43;36.60;91.90
16578;DHT22;8401;52.528;13.340;2023-06-26T09:40:09;38.00;91.30
16578;DHT22;8401;52.528;13.340;2023-06-26T09:42:35;37.90;91.10
16578;DHT22;8401;52.528;13.340;2023-06-26T09:45:02;38.70;90.60
16578;DHT22;8401;52.528;13.340;2023-06-26T09:47:30;39.30;90.10
16578;DHT22;8401;52.528;13.340;2023-06-26T09:49:57;37.40;90.00
16578;DHT22;8401;52.528;13.340;2023-06-26T09:52:26;39.30;88.50
16578;DHT22;8401;52.528;13.340;2023-06-26T09:55:09;38.40;88.40
16578;DHT22;8401;52.528;13.340;2023-06-26T09:57:35;36.90;89.60
16578;DHT22;8401;52.528;13.340;2023-06-26T10:00:04;38.10;89.10
16578;DHT22;8401;52.528;13.340;2023-06-26T10:02:31;38.40;88.40
16578;DHT22;8401;52.528;13.340;2023-06-26T10:04:56;39.10;88.10
16578;DHT22;8401;52.528;13.340;2023-06-26T10:07:23;37.60;89.30
16578;DHT22;8401;52.528;13.340;2023-06-26T10:09:50;38.20;89.20
16578;DHT22;8401;52.528;13.340;2023-06-26T10:12:25;38.90;88.80
16578;DHT22;8401;52.528;13.340;2023-06-26T10:14:53;40.60;86.80
16578;DHT22;8401;52.528;13.340;2023-06-26T10:17:20;40.80;86.20
16578;DHT22;8401;52.528;13.340;2023-06-26T10:19:48;39.50;85.10
16578;DHT22;8401;52.528;13.340;2023-06-26T10:22:17;39.40;86.00
16578;DHT22;8401;52.528;13.340;2023-06-26T10:24:43;39.30;85.80
16578;DHT22;8401;52.528;13.340;2023-06-26T10:27:17;40.60;84.70
16578;DHT22;8401;52.528;13.340;2023-06-26T10:29:44;39.30;84.50
16578;DHT22;8401;52.528;13.340;2023-06-26T10:32:12;39.00;86.00
16578;DHT22;8401;52.528;13.340;2023-06-26T10:34:40;38.70;86.20
16578;DHT22;8401;52.528;13.340;2023-06-26T10:37:05;38.40;86.40
16578;DHT22;8401;52.528;13.340;2023-06-26T10:39:48;38.40;85.80
16578;DHT22;8401;52.528;13.340;2023-06-26T10:42:18;38.80;85.10
16578;DHT22;8401;52.528;13.340;2023-06-26T10:44:46;39.80;85.30
16578;DHT22;8401;52.528;13.340;2023-06-26T10:47:31;40.60;83.50
16578;DHT22;8401;52.528;13.340;2023-06-26T10:50:16;41.50;80.30
16578;DHT22;8401;52.528;13.340;2023-06-26T10:52:43;40.00;80.20
16578;DHT22;8401;52.528;13.340;2023-06-26T10:55:09;38.60;82.50
16578;DHT22;8401;52.528;13.340;2023-06-26T10:57:36;36.80;82.90
16578;DHT22;8401;52.528;13.340;2023-06-26T11:00:09;36.90;84.30
16578;DHT22;8401;52.528;13.340;2023-06-26T11:03:21;37.40;84.40
16578;DHT22;8401;52.528;13.340;2023-06-26T11:06:11;40.40;81.50
16578;DHT22;8401;52.528;13.340;2023-06-26T11:08:49;38.60;80.90
16578;DHT22;8401;52.528;13.340;2023-06-26T11:11:16;39.60;81.90
16578;DHT22;8401;52.528;13.340;2023-06-26T11:13:42;39.30;81.50
16578;DHT22;8401;52.528;13.340;2023-06-26T11:16:08;37.90;82.40
16578;DHT22;8401;52.528;13.340;2023-06-26T11:18:34;37.50;83.30
16578;DHT22;8401;52.528;13.340;2023-06-26T11:21:10;36.60;82.60
16578;DHT22;8401;52.528;13.340;2023-06-26T11:23:40;36.40;83.20
16578;DHT22;8401;52.528;13.340;2023-06-26T11:26:19;39.20;80.80
16578;DHT22;8401;52.528;13.340;2023-06-26T11:28:54;38.00;80.80
16578;DHT22;8401;52.528;13.340;2023-06-26T11:31:30;41.00;79.50
16578;DHT22;8401;52.528;13.340;2023-06-26T11:34:00;41.40;78.00
16578;DHT22;8401;52.528;13.340;2023-06-26T11:36:27;40.70;77.20
16578;DHT22;8401;52.528;13.340;2023-06-26T11:39:00;41.10;76.60
16578;DHT22;8401;52.528;13.340;2023-06-26T11:41:31;40.70;76.40
16578;DHT22;8401;52.528;13.340;2023-06-26T11:44:01;42.10;75.70
16578;DHT22;8401;52.528;13.340;2023-06-26T11:46:27;41.60;74.70
16578;DHT22;8401;52.528;13.340;2023-06-26T11:48:53;40.30;74.50
16578;DHT22;8401;52.528;13.340;2023-06-26T11:51:20;38.30;75.70
16578;DHT22;8401;52.528;13.340;2023-06-26T11:53:46;38.20;77.70
16578;DHT22;8401;52.528;13.340;2023-06-26T11:56:16;39.80;76.80
16578;DHT22;8401;52.528;13.340;2023-06-26T11:59:05;42.50;74.40
16578;DHT22;8401;52.528;13.340;2023-06-26T12:01:33;42.90;72.40
16578;DHT22;8401;52.528;13.340;2023-06-26T12:04:01;40.30;72.00
16578;DHT22;8401;52.528;13.340;2023-06-26T12:06:29;38.20;74.70
16578;DHT22;8401;52.528;13.340;2023-06-26T12:08:56;39.50;73.60
16578;DHT22;8401;52.528;13.340;2023-06-26T12:11:23;38.90;74.30
16578;DHT22;8401;52.528;13.340;2023-06-26T12:13:50;37.40;76.00
16578;DHT22;8401;52.528;13.340;2023-06-26T12:16:16;36.00;77.60
16578;DHT22;8401;52.528;13.340;2023-06-26T12:18:41;36.20;78.00
16578;DHT22;8401;52.528;13.340;2023-06-26T12:21:07;35.80;78.80
16578;DHT22;8401;52.528;13.340;2023-06-26T12:23:33;35.50;78.80
16578;DHT22;8401;52.528;13.340;2023-06-26T12:26:19;34.50;79.80
16578;DHT22;8401;52.528;13.340;2023-06-26T12:28:46;34.70;80.70
16578;DHT22;8401;52.528;13.340;2023-06-26T12:31:20;34.70;81.60
16578;DHT22;8401;52.528;13.340;2023-06-26T12:33:47;34.40;81.20
16578;DHT22;8401;52.528;13.340;2023-06-26T12:36:13;34.10;82.10
16578;DHT22;8401;52.528;13.340;2023-06-26T12:38:42;34.40;83.30
16578;DHT22;8401;52.528;13.340;2023-06-26T12:41:14;34.70;81.60
16578;DHT22;8401;52.528;13.340;2023-06-26T12:43:42;34.80;81.50
16578;DHT22;8401;52.528;13.340;2023-06-26T12:46:08;34.60;82.20
16578;DHT22;8401;52.528;13.340;2023-06-26T12:48:41;34.20;83.10
16578;DHT22;8401;52.528;13.340;2023-06-26T12:51:16;34.10;83.20
16578;DHT22;8401;52.528;13.340;2023-06-26T12:53:42;33.80;84.60
16578;DHT22;8401;52.528;13.340;2023-06-26T12:56:09;33.80;84.30
16578;DHT22;8401;52.528;13.340;2023-06-26T12:58:36;33.60;85.20
16578;DHT22;8401;52.528;13.340;2023-06-26T13:01:06;33.40;85.90
16578;DHT22;8401;52.528;13.340;2023-06-26T13:03:40;33.30;86.60
16578;DHT22;8401;52.528;13.340;2023-06-26T13:06:06;33.30;85.80
16578;DHT22;8401;52.528;13.340;2023-06-26T13:08:33;33.20;86.40
16578;DHT22;8401;52.528;13.340;2023-06-26T13:10:59;33.00;87.40
16578;DHT22;8401;52.528;13.340;2023-06-26T13:13:25;32.80;87.60
16578;DHT22;8401;52.528;13.340;2023-06-26T13:15:50;32.70;87.40
16578;DHT22;8401;52.528;13.340;2023-06-26T13:18:16;32.80;87.00
16578;DHT22;8401;52.528;13.340;2023-06-26T13:20:42;32.60;87.70
16578;DHT22;8401;52.528;13.340;2023-06-26T13:23:07;32.40;88.00
16578;DHT22;8401;52.528;13.340;2023-06-26T13:25:33;32.40;88.20
16578;DHT22;8401;52.528;13.340;2023-06-26T13:27:59;32.50;88.40
16578;DHT22;8401;52.528;13.340;2023-06-26T13:30:25;32.30;89.50
16578;DHT22;8401;52.528;13.340;2023-06-26T13:32:51;32.30;89.50
16578;DHT22;8401;52.528;13.340;2023-06-26T13:35:17;32.20;89.60
16578;DHT22;8401;52.528;13.340;2023-06-26T13:37:43;31.90;89.90
16578;DHT22;8401;52.528;13.340;2023-06-26T13:40:09;32.00;89.40
16578;DHT22;8401;52.528;13.340;2023-06-26T13:42:35;31.90;89.50
16578;DHT22;8401;52.528;13.340;2023-06-26T13:45:05;31.60;90.00
16578;DHT22;8401;52.528;13.340;2023-06-26T13:47:31;31.60;90.20
16578;DHT22;8401;52.528;13.340;2023-06-26T13:49:56;31.70;90.40
16578;DHT22;8401;52.528;13.340;2023-06-26T13:52:22;31.70;90.50
16578;DHT22;8401;52.528;13.340;2023-06-26T13:54:47;31.40;91.10
16578;DHT22;8401;52.528;13.340;2023-06-26T13:57:13;31.30;91.20
16578;DHT22;8401;52.528;13.340;2023-06-26T13:59:39;31.20;91.00
16578;DHT22;8401;52.528;13.340;2023-06-26T14:02:05;31.20;90.80
16578;DHT22;8401;52.528;13.340;2023-06-26T14:04:32;31.20;91.00
16578;DHT22;8401;52.528;13.340;2023-06-26T14:06:57;31.00;91.30
16578;DHT22;8401;52.528;13.340;2023-06-26T14:09:23;30.90;91.80
16578;DHT22;8401;52.528;13.340;2023-06-26T14:11:49;30.70;92.10
16578;DHT22;8401;52.528;13.340;2023-06-26T14:14:14;30.40;92.30
16578;DHT22;8401;52.528;13.340;2023-06-26T14:16:40;28.90;95.60
16578;DHT22;8401;52.528;13.340;2023-06-26T14:19:06;28.10;99.10
16578;DHT22;8401;52.528;13.340;2023-06-26T14:21:32;27.30;99.90
16578;DHT22;8401;52.528;13.340;2023-06-26T14:23:58;26.50;99.90
16578;DHT22;8401;52.528;13.340;2023-06-26T14:26:24;24.60;99.90
16578;DHT22;8401;52.528;13.340;2023-06-26T14:28:50;22.70;99.90
16578;DHT22;8401;52.528;13.340;2023-06-26T14:31:16;21.60;99.90
16578;DHT22;8401;52.528;13.340;2023-06-26T14:33:41;20.80;99.90
16578;DHT22;8401;52.528;13.340;2023-06-26T14:36:07;21.70;99.90
16578;DHT22;8401;52.528;13.340;2023-06-26T14:38:33;21.70;99.90
16578;DHT22;8401;52.528;13.340;2023-06-26T14:40:58;21.60;99.90
16578;DHT22;8401;52.528;13.340;2023-06-26T14:43:24;21.50;99.90
16578;DHT22;8401;52.528;13.340;2023-06-26T14:45:50;21.30;99.90
16578;DHT22;8401;52.528;13.340;2023-06-26T14:48:15;21.40;99.90
16578;DHT22;8401;52.528;13.340;2023-06-26T14:50:41;21.40;99.90
16578;DHT22;8401;52.528;13.340;2023-06-26T14:53:06;21.60;99.90
16578;DHT22;8401;52.528;13.340;2023-06-26T14:55:32;21.60;99.90
16578;DHT22;8401;52.528;13.340;2023-06-26T14:57:58;21.50;99.90
16578;DHT22;8401;52.528;13.340;2023-06-26T15:00:23;21.60;99.90
16578;DHT22;8401;52.528;13.340;2023-06-26T15:02:50;21.50;99.90
16578;DHT22;8401;52.528;13.340;2023-06-26T15:05:19;21.40;99.90
16578;DHT22;8401;52.528;13.340;2023-06-26T15:07:44;21.40;99.90
16578;DHT22;8401;52.528;13.340;2023-06-26T15:10:10;21.40;99.90
16578;DHT22;8401;52.528;13.340;2023-06-26T15:12:35;21.20;99.90
16578;DHT22;8401;52.528;13.340;2023-06-26T15:15:01;21.10;99.90
16578;DHT22;8401;52.528;13.340;2023-06-26T15:17:27;21.10;99.90
16578;DHT22;8401;52.528;13.340;2023-06-26T15:19:52;21.00;99.90
16578;DHT22;8401;52.528;13.340;2023-06-26T15:22:18;20.80;99.90
16578;DHT22;8401;52.528;13.340;2023-06-26T15:24:44;20.70;99.90
16578;DHT22;8401;52.528;13.340;2023-06-26T15:27:09;20.90;99.90
16578;DHT22;8401;52.528;13.340;2023-06-26T15:29:35;20.70;99.90
16578;DHT22;8401;52.528;13.340;2023-06-26T15:32:01;20.90;99.90
16578;DHT22;8401;52.528;13.340;2023-06-26T15:34:26;20.90;99.90